Time;durP1;ratioP1;P1;durP2;ratioP2;P2;SDS_P1;SDS_P2;PMS_P1;PMS_P2;Temp;Humidity;BMP_temperature;BMP_pressure;BME280_temperature;BME280_humidity;BME280_pressure;Samples;Min_cycle;Max_cycle;Signal;HPM_P1;HPM_P2
2022/09/22 03:04:10;;;;;;;26.87;25.07;;;5.20;99.90;;;;;;5607834;23;20498;-73
2022/09/22 03:06:37;;;;;;;29.50;27.40;;;5.30;99.90;;;;;;4972086;28;20496;-70
2022/09/22 03:09:04;;;;;;;29.27;27.47;;;4.90;99.90;;;;;;4973929;28;20455;-70
2022/09/22 03:11:30;;;;;;;30.83;28.90;;;5.10;99.90;;;;;;4974332;28;20455;-70
2022/09/22 03:13:57;;;;;;;32.00;29.60;;;5.10;99.90;;;;;;4974210;28;21040;-71
2022/09/22 03:16:24;;;;;;;30.60;28.53;;;5.30;99.90;;;;;;4974248;28;20956;-71
2022/09/22 03:18:51;;;;;;;32.43;30.23;;;5.10;99.90;;;;;;4974336;28;20459;-72
2022/09/22 03:21:19;;;;;;;32.10;29.70;;;4.90;99.90;;;;;;4974143;28;20460;-72
2022/09/22 03:23:45;;;;;;;32.90;30.43;;;4.80;99.90;;;;;;4974065;28;20512;-72
2022/09/22 03:26:12;;;;;;;33.93;31.33;;;5.30;99.90;;;;;;4974005;28;20456;-71
2022/09/22 03:28:39;;;;;;;33.10;30.40;;;4.40;99.90;;;;;;4974064;28;20497;-71
2022/09/22 03:31:05;;;;;;;34.40;31.70;;;4.70;99.90;;;;;;4974162;28;21090;-71
2022/09/22 03:33:32;;;;;;;33.47;30.90;;;5.00;99.90;;;;;;4973802;28;20482;-71
2022/09/22 03:35:59;;;;;;;33.80;31.37;;;5.00;99.90;;;;;;4973834;28;20580;-72
2022/09/22 03:38:27;;;;;;;33.87;31.47;;;4.90;99.90;;;;;;4973759;28;20971;-72
2022/09/22 03:40:54;;;;;;;31.80;29.37;;;4.80;99.90;;;;;;4973950;28;20462;-72
2022/09/22 03:43:21;;;;;;;31.70;28.83;;;5.60;99.90;;;;;;4974017;28;20462;-72
2022/09/22 03:45:47;;;;;;;31.00;28.87;;;5.30;99.90;;;;;;4972434;28;20459;-72
2022/09/22 03:48:14;;;;;;;30.40;28.40;;;5.80;99.90;;;;;;4973440;28;20487;-71
2022/09/22 03:50:41;;;;;;;31.27;28.93;;;5.30;99.90;;;;;;4973530;28;20937;-71
2022/09/22 03:53:08;;;;;;;32.60;30.30;;;5.30;99.90;;;;;;4973760;28;20478;-72
2022/09/22 03:55:36;;;;;;;34.20;31.40;;;5.30;99.90;;;;;;4973492;28;20457;-72
2022/09/22 03:58:03;;;;;;;34.37;31.53;;;5.20;99.90;;;;;;4973270;28;21007;-72
2022/09/22 04:00:30;;;;;;;34.53;31.93;;;5.20;99.90;;;;;;4973187;28;20462;-72
2022/09/22 04:02:57;;;;;;;34.30;31.97;;;5.30;99.90;;;;;;4973123;28;20476;-72
2022/09/22 04:05:24;;;;;;;35.13;32.50;;;5.10;99.90;;;;;;4973262;28;20571;-73
2022/09/22 04:07:50;;;;;;;35.57;33.00;;;5.10;99.90;;;;;;4973423;28;20497;-72
2022/09/22 04:10:17;;;;;;;35.37;32.83;;;5.10;99.90;;;;;;4973128;28;20489;-72
2022/09/22 04:12:45;;;;;;;37.23;34.23;;;5.00;99.90;;;;;;4973221;28;20450;-71
2022/09/22 04:15:12;;;;;;;37.07;34.30;;;5.00;99.90;;;;;;4973039;28;20955;-73
2022/09/22 04:17:39;;;;;;;37.23;34.53;;;5.00;99.90;;;;;;4973136;28;20828;-73
2022/09/22 04:20:07;;;;;;;37.97;34.70;;;5.00;99.90;;;;;;4973231;28;20480;-73
2022/09/22 04:22:34;;;;;;;39.50;36.17;;;5.00;99.90;;;;;;4973198;28;20463;-74
2022/09/22 04:25:01;;;;;;;39.57;35.93;;;5.00;99.90;;;;;;4972982;28;20458;-73
2022/09/22 04:27:27;;;;;;;40.00;36.80;;;4.90;99.90;;;;;;4972881;28;20489;-73
2022/09/22 04:29:56;;;;;;;39.50;36.23;;;4.90;99.90;;;;;;4972835;28;20464;-73
2022/09/22 04:32:23;;;;;;;39.33;36.33;;;4.80;99.90;;;;;;4972961;28;20451;-73
2022/09/22 04:34:50;;;;;;;46.77;36.17;;;4.80;99.90;;;;;;4972886;28;20556;-72
2022/09/22 04:37:16;;;;;;;37.97;35.23;;;4.80;99.90;;;;;;4972668;28;20872;-73
2022/09/22 04:39:43;;;;;;;37.33;34.83;;;4.80;99.90;;;;;;4972709;28;20802;-73
2022/09/22 04:42:10;;;;;;;42.27;38.90;;;4.90;99.90;;;;;;4972612;28;20454;-73
2022/09/22 04:44:36;;;;;;;39.57;36.63;;;4.90;99.90;;;;;;4972963;28;20449;-74
2022/09/22 04:47:05;;;;;;;39.23;36.40;;;5.00;99.90;;;;;;4972579;28;20509;-73
2022/09/22 04:49:31;;;;;;;40.50;36.90;;;5.10;99.90;;;;;;4972353;28;20447;-74
2022/09/22 04:51:58;;;;;;;38.80;36.00;;;5.80;99.90;;;;;;4972422;28;20511;-73
2022/09/22 04:54:25;;;;;;;37.60;34.83;;;4.90;99.90;;;;;;4972394;28;20488;-73
2022/09/22 04:56:52;;;;;;;41.73;38.57;;;5.50;99.90;;;;;;4972464;28;20850;-73
2022/09/22 04:59:18;;;;;;;40.70;37.90;;;5.10;99.90;;;;;;4972470;28;20446;-72
2022/09/22 05:01:45;;;;;;;39.30;36.50;;;5.20;99.90;;;;;;4972209;28;20953;-73
2022/09/22 05:04:13;;;;;;;40.87;37.83;;;5.30;99.90;;;;;;4972096;28;20485;-74
2022/09/22 05:06:41;;;;;;;37.83;34.83;;;5.30;99.90;;;;;;4972225;28;20459;-72
2022/09/22 05:09:08;;;;;;;38.00;34.83;;;5.20;99.90;;;;;;4972326;28;20498;-72
2022/09/22 05:11:34;;;;;;;37.60;34.80;;;5.20;99.90;;;;;;4972102;28;20447;-73
2022/09/22 05:14:01;;;;;;;36.97;34.17;;;5.30;99.90;;;;;;4972002;28;20459;-73
2022/09/22 05:16:31;;;;;;;38.33;35.20;;;5.20;99.90;;;;;;4971986;28;20556;-73
2022/09/22 05:18:57;;;;;;;39.27;36.40;;;5.20;99.90;;;;;;4971941;28;20450;-73
2022/09/22 05:21:25;;;;;;;37.90;35.10;;;5.20;99.90;;;;;;4972021;28;20468;-73
2022/09/22 05:23:52;;;;;;;38.73;35.80;;;5.20;99.90;;;;;;4972034;28;20460;-73
2022/09/22 05:26:19;;;;;;;36.90;34.30;;;5.30;99.90;;;;;;4972081;28;20460;-72
2022/09/22 05:28:45;;;;;;;38.70;35.70;;;5.20;99.90;;;;;;4971662;28;20487;-72
2022/09/22 05:31:12;;;;;;;39.83;37.07;;;5.40;99.90;;;;;;4971688;28;20951;-72
2022/09/22 05:33:39;;;;;;;39.27;36.50;;;5.40;99.90;;;;;;4971553;28;20458;-72
2022/09/22 05:36:06;;;;;;;38.20;34.97;;;5.40;99.90;;;;;;4971878;28;20455;-72
2022/09/22 05:38:34;;;;;;;39.27;36.57;;;5.60;99.90;;;;;;4971612;28;20452;-72
2022/09/22 05:41:02;;;;;;;40.23;37.17;;;5.50;99.90;;;;;;4971680;28;20461;-72
2022/09/22 05:43:29;;;;;;;38.63;35.63;;;5.40;99.90;;;;;;4972455;28;21094;-72
2022/09/22 05:45:56;;;;;;;38.90;36.07;;;5.50;99.90;;;;;;4971896;28;20517;-73
2022/09/22 05:48:22;;;;;;;37.07;34.43;;;5.50;99.90;;;;;;4972113;28;20573;-73
2022/09/22 05:50:49;;;;;;;37.33;34.63;;;5.60;99.90;;;;;;4972081;28;20458;-73
2022/09/22 05:53:16;;;;;;;36.53;33.83;;;5.50;99.90;;;;;;4972222;28;20458;-73
2022/09/22 05:55:44;;;;;;;39.60;36.23;;;5.80;99.90;;;;;;4971469;28;20486;-73
2022/09/22 05:58:11;;;;;;;38.70;35.73;;;5.80;99.90;;;;;;4971300;28;20455;-74
2022/09/22 06:00:39;;;;;;;53.37;41.47;;;5.90;99.90;;;;;;4971383;28;20450;-73
2022/09/22 06:03:05;;;;;;;44.90;41.00;;;6.30;99.90;;;;;;4971257;28;20484;-74
2022/09/22 06:05:32;;;;;;;44.00;40.67;;;6.70;99.90;;;;;;4971337;28;20484;-74
2022/09/22 06:08:02;;;;;;;49.40;45.20;;;7.30;99.90;;;;;;4971044;28;20826;-73
2022/09/22 06:10:29;;;;;;;47.97;43.60;;;7.30;99.90;;;;;;4970224;28;20543;-74
2022/09/22 06:13:00;;;;;;;47.73;43.40;;;7.60;99.90;;;;;;4971101;28;20452;-75
2022/09/22 06:15:27;;;;;;;46.00;42.10;;;7.80;99.90;;;;;;4971218;28;20456;-74
2022/09/22 06:17:54;;;;;;;42.10;38.90;;;8.10;99.90;;;;;;4981284;28;20871;-72
2022/09/22 06:20:21;;;;;;;37.53;34.20;;;8.60;99.90;;;;;;4990436;28;20526;-72
2022/09/22 06:22:48;;;;;;;29.93;27.90;;;8.70;99.90;;;;;;4971266;28;20468;-73
2022/09/22 06:25:15;;;;;;;29.03;26.40;;;8.90;99.90;;;;;;4958282;28;20471;-73
2022/09/22 06:27:43;;;;;;;24.73;22.70;;;9.20;99.90;;;;;;4951525;28;20521;-75
2022/09/22 06:30:13;;;;;;;21.30;19.73;;;9.40;99.90;;;;;;4950790;28;20906;-74
2022/09/22 06:32:42;;;;;;;20.53;19.03;;;9.60;99.90;;;;;;4960088;28;20455;-73
2022/09/22 06:35:10;;;;;;;20.23;18.50;;;9.90;99.90;;;;;;4963897;28;20448;-73
2022/09/22 06:37:39;;;;;;;21.37;19.47;;;10.50;99.90;;;;;;4951725;28;20453;-73
2022/09/22 06:40:07;;;;;;;19.57;18.27;;;10.90;99.90;;;;;;4976614;28;20475;-73
2022/09/22 06:42:34;;;;;;;20.40;18.80;;;11.40;99.90;;;;;;4984910;28;21049;-72
2022/09/22 06:45:38;;;;;;;20.20;18.70;;;12.00;99.90;;;;;;4969294;28;20491;-75
2022/09/22 06:48:06;;;;;;;20.30;18.50;;;11.70;99.90;;;;;;4966611;28;20483;-75
2022/09/22 06:50:32;;;;;;;20.70;19.07;;;11.90;99.90;;;;;;4970189;28;20546;-75
2022/09/22 06:53:00;;;;;;;19.87;18.13;;;11.90;99.90;;;;;;4970039;28;20459;-75
2022/09/22 06:55:27;;;;;;;19.97;18.27;;;12.30;99.90;;;;;;4967527;28;20455;-73
2022/09/22 06:57:56;;;;;;;19.10;17.80;;;12.50;99.90;;;;;;4969723;28;20448;-73
2022/09/22 07:00:23;;;;;;;20.10;18.43;;;12.20;99.90;;;;;;4971021;28;20456;-76
2022/09/22 07:02:51;;;;;;;18.77;17.60;;;12.80;99.90;;;;;;4970513;28;20534;-76
2022/09/22 07:05:19;;;;;;;19.80;18.13;;;13.00;99.90;;;;;;4970018;28;20483;-76
2022/09/22 07:07:46;;;;;;;17.80;16.67;;;13.20;99.90;;;;;;4969965;28;20930;-74
2022/09/22 07:10:13;;;;;;;16.97;15.90;;;13.30;99.90;;;;;;4970536;28;20556;-76
2022/09/22 07:12:40;;;;;;;17.17;15.83;;;13.90;99.90;;;;;;4970967;28;20459;-75
2022/09/22 07:15:07;;;;;;;17.43;16.20;;;14.50;99.90;;;;;;4972154;28;20877;-77
2022/09/22 07:17:35;;;;;;;16.47;15.57;;;14.80;99.90;;;;;;4971683;28;20945;-78
2022/09/22 07:20:04;;;;;;;16.00;15.20;;;15.20;99.90;;;;;;4970800;28;20478;-75
2022/09/22 07:22:31;;;;;;;15.50;14.70;;;15.20;99.90;;;;;;4974171;28;20942;-77
2022/09/22 07:24:59;;;;;;;16.97;15.90;;;15.60;99.90;;;;;;4973884;28;20727;-75
2022/09/22 07:27:25;;;;;;;16.57;15.67;;;15.70;99.90;;;;;;4973986;28;20456;-75
2022/09/22 07:29:53;;;;;;;17.23;16.23;;;16.40;99.90;;;;;;4974501;28;20491;-75
2022/09/22 07:32:20;;;;;;;17.40;16.03;;;16.90;99.90;;;;;;4974719;28;20456;-76
2022/09/22 07:34:47;;;;;;;17.53;16.13;;;17.20;98.20;;;;;;4975340;28;20465;-75
2022/09/22 07:37:16;;;;;;;17.80;16.50;;;17.50;96.90;;;;;;4975958;28;20456;-76
2022/09/22 07:39:44;;;;;;;16.60;15.53;;;17.70;95.50;;;;;;4976062;28;20724;-76
2022/09/22 07:42:11;;;;;;;17.10;16.10;;;18.10;95.60;;;;;;4975026;28;20479;-76
2022/09/22 07:48:35;;;;;;;17.03;16.13;;;18.50;94.40;;;;;;4974618;28;20562;-77
2022/09/22 07:50:09;;;;;;;16.83;15.57;;;19.40;90.10;;;;;;4974514;28;20484;-75
2022/09/22 07:52:37;;;;;;;17.00;16.00;;;19.50;90.20;;;;;;4975561;28;20456;-75
2022/09/22 07:55:04;;;;;;;19.20;16.93;;;19.60;88.40;;;;;;4974944;28;20972;-77
2022/09/22 07:57:32;;;;;;;16.67;15.67;;;19.70;88.40;;;;;;4976765;28;20459;-77
2022/09/22 07:59:59;;;;;;;16.40;15.60;;;20.10;85.50;;;;;;4975693;28;20443;-76
2022/09/22 08:02:27;;;;;;;18.23;17.23;;;20.70;83.30;;;;;;4973795;28;20467;-77
2022/09/22 08:05:01;;;;;;;17.47;16.37;;;20.80;82.90;;;;;;4974384;28;20581;-76
2022/09/22 08:07:30;;;;;;;17.87;16.77;;;20.20;83.10;;;;;;4973607;28;20456;-77
2022/09/22 08:09:58;;;;;;;17.10;16.07;;;20.20;85.90;;;;;;4972914;28;20492;-77
2022/09/22 08:12:25;;;;;;;17.87;16.40;;;20.40;83.90;;;;;;4973838;28;20478;-78
2022/09/22 08:14:52;;;;;;;17.90;16.80;;;21.10;81.10;;;;;;4974185;28;20514;-76
2022/09/22 08:17:19;;;;;;;17.97;16.97;;;21.80;81.00;;;;;;4974799;28;20459;-78
2022/09/22 08:19:45;;;;;;;16.97;16.07;;;22.30;80.10;;;;;;4973398;28;20949;-79
2022/09/22 08:22:12;;;;;;;17.20;16.40;;;21.70;79.20;;;;;;4973362;28;20451;-77
2022/09/22 08:24:39;;;;;;;18.97;17.87;;;22.70;81.30;;;;;;4973585;28;20930;-79
2022/09/22 08:27:07;;;;;;;17.50;16.43;;;23.50;74.80;;;;;;4972312;28;20452;-79
2022/09/22 08:29:33;;;;;;;18.13;16.93;;;23.30;75.40;;;;;;4972929;28;20499;-79
2022/09/22 08:32:00;;;;;;;16.93;16.17;;;22.60;77.50;;;;;;4973092;28;20972;-78
2022/09/22 08:34:27;;;;;;;17.43;16.60;;;23.00;76.70;;;;;;4973899;28;20454;-76
2022/09/22 08:36:54;;;;;;;16.37;15.57;;;23.40;75.20;;;;;;4974570;28;20806;-77
2022/09/22 08:39:21;;;;;;;16.67;15.97;;;23.20;75.10;;;;;;4974978;28;20451;-77
2022/09/22 08:42:00;;;;;;;16.47;15.67;;;23.40;74.80;;;;;;4974920;28;20460;-78
2022/09/22 08:44:36;;;;;;;17.77;16.87;;;22.70;75.20;;;;;;4974516;28;20471;-79
2022/09/22 08:47:03;;;;;;;17.17;16.27;;;23.40;75.90;;;;;;4975662;28;20894;-79
2022/09/22 08:52:27;;;;;;;18.47;17.37;;;24.60;74.10;;;;;;4974929;28;20940;-79
2022/09/22 08:54:58;;;;;;;17.03;16.17;;;25.40;72.90;;;;;;4974786;28;20455;-78
2022/09/22 08:57:45;;;;;;;16.70;15.80;;;26.10;68.50;;;;;;4973890;28;20522;-79
2022/09/22 09:00:16;;;;;;;17.20;16.50;;;25.40;66.80;;;;;;4973731;28;20463;-79
2022/09/22 09:02:45;;;;;;;16.30;15.60;;;25.30;66.80;;;;;;4973708;28;20472;-79
2022/09/22 09:05:47;;;;;;;17.13;16.27;;;25.20;67.10;;;;;;4973402;28;20552;-77
2022/09/22 09:08:38;;;;;;;17.77;16.80;;;25.40;64.20;;;;;;4973665;28;20462;-79
2022/09/22 09:11:18;;;;;;;16.73;15.93;;;26.70;60.00;;;;;;4974016;28;20447;-79
2022/09/22 09:13:59;;;;;;;17.60;16.80;;;25.60;60.80;;;;;;4973203;28;20518;-78
2022/09/22 09:16:47;;;;;;;16.40;15.60;;;25.30;61.40;;;;;;4972961;28;20448;-79
2022/09/22 09:19:18;;;;;;;16.00;15.40;;;;;;;;;;4972919;28;20448;-79
2022/09/22 09:21:50;;;;;;;18.27;16.97;;;26.60;56.00;;;;;;4974360;28;20538;-80
2022/09/22 09:24:26;;;;;;;18.77;17.77;;;27.40;55.70;;;;;;4975295;28;20844;-79
2022/09/22 09:26:55;;;;;;;17.80;16.87;;;27.70;54.00;;;;;;4975733;28;20495;-81
2022/09/22 09:29:27;;;;;;;16.90;16.00;;;27.70;53.40;;;;;;4975316;28;20480;-80
2022/09/22 09:31:56;;;;;;;17.10;16.20;;;28.00;53.60;;;;;;4974055;28;20456;-79
2022/09/22 09:34:27;;;;;;;16.17;15.37;;;27.40;54.50;;;;;;4973417;28;20502;-77
2022/09/22 09:37:06;;;;;;;16.83;16.03;;;27.80;55.30;;;;;;4972831;28;20491;-80
2022/09/22 09:39:36;;;;;;;16.43;15.73;;;28.10;51.60;;;;;;4973178;28;20456;-79
2022/09/22 09:42:13;;;;;;;16.37;15.50;;;28.80;50.60;;;;;;4972952;28;20451;-80
2022/09/22 09:44:40;;;;;;;16.90;15.67;;;27.70;51.90;;;;;;4970901;28;20458;-78
2022/09/22 09:47:18;;;;;;;15.50;14.80;;;27.00;52.70;;;;;;4972692;28;20456;-79
2022/09/22 09:49:45;;;;;;;15.30;14.60;;;27.30;52.10;;;;;;4971702;28;20749;-81
2022/09/22 09:52:14;;;;;;;15.87;14.90;;;27.10;52.90;;;;;;4972136;28;20443;-79
2022/09/22 09:54:45;;;;;;;15.80;14.90;;;26.60;54.20;;;;;;4972739;28;20856;-80
2022/09/22 09:57:13;;;;;;;15.60;14.80;;;27.10;53.20;;;;;;4971830;28;20482;-79
2022/09/22 10:02:29;;;;;;;14.77;14.07;;;28.00;50.60;;;;;;4972485;28;20928;-79
2022/09/22 10:04:58;;;;;;;15.10;14.40;;;28.50;50.40;;;;;;4972607;28;20482;-78
2022/09/22 10:07:27;;;;;;;13.97;13.40;;;28.20;50.70;;;;;;4970973;28;20451;-78
2022/09/22 10:09:55;;;;;;;13.30;12.80;;;28.00;49.00;;;;;;4971100;28;20487;-78
2022/09/22 10:12:25;;;;;;;13.43;12.97;;;27.60;49.70;;;;;;4972212;28;20456;-79
2022/09/22 10:14:54;;;;;;;13.50;13.00;;;26.40;49.90;;;;;;4972292;28;20558;-78
2022/09/22 10:17:24;;;;;;;13.40;12.90;;;25.40;51.90;;;;;;4972355;28;20456;-77
2022/09/22 10:19:52;;;;;;;13.73;13.23;;;24.50;54.10;;;;;;4971875;28;20458;-78
2022/09/22 10:22:27;;;;;;;12.90;12.50;;;24.70;54.30;;;;;;4972470;28;20474;-78
2022/09/22 10:24:59;;;;;;;13.40;12.90;;;24.50;53.80;;;;;;4972235;28;20452;-78
2022/09/22 10:27:29;;;;;;;13.50;12.87;;;23.90;55.30;;;;;;4972392;28;20506;-78
2022/09/22 10:30:14;;;;;;;12.57;11.87;;;23.50;55.40;;;;;;4971520;28;20492;-78
2022/09/22 10:32:41;;;;;;;13.57;12.97;;;23.80;56.60;;;;;;4972494;28;20881;-78
2022/09/22 10:35:28;;;;;;;12.90;12.40;;;24.40;54.50;;;;;;4972556;28;20447;-76
2022/09/22 10:37:57;;;;;;;14.03;13.43;;;25.00;53.50;;;;;;4971994;28;20451;-76
2022/09/22 10:40:25;;;;;;;13.07;12.67;;;25.50;52.80;;;;;;4970250;28;20451;-76
2022/09/22 10:42:56;;;;;;;13.10;12.63;;;25.00;52.70;;;;;;4970483;28;20452;-76
2022/09/22 10:45:36;;;;;;;13.77;12.97;;;24.30;51.80;;;;;;4970273;28;20810;-75
2022/09/22 10:48:07;;;;;;;12.80;12.40;;;23.80;52.90;;;;;;4970672;28;20841;-76
2022/09/22 10:50:46;;;;;;;12.90;12.50;;;23.80;53.00;;;;;;4970175;28;20497;-76
2022/09/22 10:53:36;;;;;;;13.10;12.40;;;23.30;52.10;;;;;;4970032;28;20459;-75
2022/09/22 10:56:13;;;;;;;12.63;12.10;;;23.30;53.50;;;;;;4972469;28;20440;-76
2022/09/22 10:58:55;;;;;;;12.40;11.90;;;22.90;54.60;;;;;;4974329;28;20458;-74
2022/09/22 11:01:40;;;;;;;13.87;13.30;;;22.80;53.80;;;;;;4974234;28;20450;-77
2022/09/22 11:04:21;;;;;;;12.70;12.20;;;23.40;53.70;;;;;;4975125;28;20483;-75
2022/09/22 11:12:48;;;;;;;13.13;12.70;;;23.20;52.50;;;;;;4974141;28;20840;-76
2022/09/22 11:15:26;;;;;;;13.67;13.17;;;22.70;53.70;;;;;;4973619;28;20459;-75
2022/09/22 11:18:17;;;;;;;12.20;11.80;;;23.40;53.50;;;;;;4973989;28;20462;-74
2022/09/22 11:20:47;;;;;;;12.70;12.30;;;23.20;54.50;;;;;;4973654;28;20491;-75
2022/09/22 11:23:45;;;;;;;12.90;12.50;;;23.00;53.10;;;;;;4973879;28;20769;-75
2022/09/22 11:26:27;;;;;;;12.43;11.93;;;22.40;53.20;;;;;;4973373;28;20460;-76
2022/09/22 11:29:19;;;;;;;12.60;12.20;;;22.80;53.40;;;;;;4973513;28;20451;-75
2022/09/22 11:31:50;;;;;;;11.30;10.83;;;23.60;52.80;;;;;;4973286;28;20447;-76
2022/09/22 11:34:51;;;;;;;13.10;12.63;;;23.30;51.30;;;;;;4973584;28;20865;-76
2022/09/22 11:37:33;;;;;;;12.97;12.57;;;23.00;51.30;;;;;;4952019;28;20459;-75
2022/09/22 11:40:20;;;;;;;12.80;12.40;;;22.90;52.10;;;;;;4973479;28;20431;-75
2022/09/22 11:42:55;;;;;;;12.17;11.67;;;22.80;52.40;;;;;;4974558;28;20451;-75
2022/09/22 11:45:40;;;;;;;12.10;11.70;;;22.70;51.60;;;;;;4975622;28;20447;-74
2022/09/22 11:48:21;;;;;;;12.13;11.73;;;22.80;52.20;;;;;;4976160;28;20450;-74
2022/09/22 11:51:01;;;;;;;12.23;11.83;;;22.70;53.20;;;;;;4974880;28;20494;-75
2022/09/22 11:53:43;;;;;;;12.37;11.97;;;22.80;53.70;;;;;;4972926;28;20463;-76
2022/09/22 11:56:34;;;;;;;12.40;12.00;;;23.30;53.30;;;;;;4972995;28;20535;-76
2022/09/22 11:59:05;;;;;;;12.53;12.03;;;23.70;53.20;;;;;;4972787;28;20455;-76
2022/09/22 12:01:37;;;;;;;11.70;11.20;;;23.50;51.00;;;;;;4972613;28;20798;-75
2022/09/22 12:04:14;;;;;;;13.00;12.40;;;22.60;51.60;;;;;;4972999;28;20494;-75
2022/09/22 12:06:44;;;;;;;13.10;12.63;;;22.30;53.30;;;;;;4972751;28;20988;-75
2022/09/22 12:09:17;;;;;;;12.80;12.30;;;23.10;52.40;;;;;;4973675;28;20470;-76
2022/09/22 12:11:46;;;;;;;13.00;12.40;;;22.70;52.40;;;;;;4974547;28;20452;-75
2022/09/22 12:14:14;;;;;;;12.40;12.00;;;22.60;52.80;;;;;;4979714;28;20432;-76
2022/09/22 12:16:45;;;;;;;11.90;11.50;;;23.20;52.50;;;;;;4972346;28;20455;-76
2022/09/22 12:19:20;;;;;;;11.53;11.20;;;23.50;52.10;;;;;;4972447;28;20458;-76
2022/09/22 12:21:54;;;;;;;12.10;11.70;;;23.70;50.30;;;;;;4972252;28;20458;-76
2022/09/22 12:24:21;;;;;;;12.47;12.00;;;24.00;50.80;;;;;;4972595;28;20864;-76
2022/09/22 12:26:50;;;;;;;12.93;12.33;;;24.30;49.70;;;;;;4972204;28;20463;-75
2022/09/22 12:29:36;;;;;;;12.40;11.93;;;24.70;50.60;;;;;;4972011;28;20687;-75
2022/09/22 12:32:03;;;;;;;11.50;11.10;;;24.70;48.90;;;;;;4972204;28;20447;-76
2022/09/22 12:34:34;;;;;;;13.20;12.70;;;24.30;50.10;;;;;;4971836;28;20458;-75
2022/09/22 12:37:12;;;;;;;12.23;11.83;;;24.40;49.30;;;;;;4971931;28;20536;-74
2022/09/22 12:39:41;;;;;;;11.53;11.13;;;24.40;49.40;;;;;;4971858;28;20501;-75
2022/09/22 12:42:20;;;;;;;12.20;11.70;;;24.00;49.30;;;;;;4972202;28;20447;-75
2022/09/22 12:44:52;;;;;;;11.70;11.30;;;23.40;50.30;;;;;;4971888;28;20502;-76
2022/09/22 12:47:22;;;;;;;12.63;12.20;;;23.10;50.20;;;;;;4971946;28;20474;-76
2022/09/22 12:49:51;;;;;;;12.40;12.00;;;23.20;50.40;;;;;;4971864;28;20488;-75
2022/09/22 12:52:56;;;;;;;12.73;12.33;;;23.80;50.60;;;;;;4971743;28;20455;-76
2022/09/22 12:55:37;;;;;;;11.97;11.57;;;23.60;50.60;;;;;;4971734;28;20941;-75
2022/09/22 12:58:52;;;;;;;11.97;11.57;;;24.30;49.80;;;;;;4971747;28;20957;-75
2022/09/22 13:01:31;;;;;;;12.30;11.90;;;24.20;49.40;;;;;;4947575;28;20518;-75
2022/09/22 13:04:19;;;;;;;11.80;11.40;;;24.50;49.70;;;;;;4971152;28;20593;-75
2022/09/22 13:06:54;;;;;;;12.50;12.10;;;24.40;48.90;;;;;;4971323;28;20459;-75
2022/09/22 13:09:24;;;;;;;11.87;11.47;;;23.20;49.50;;;;;;4971493;28;20514;-76
2022/09/22 13:12:24;;;;;;;12.10;11.70;;;22.70;50.60;;;;;;4971432;28;20447;-76
2022/09/22 13:15:19;;;;;;;12.07;11.67;;;22.50;51.50;;;;;;4971500;28;20460;-76
2022/09/22 13:17:48;;;;;;;11.60;11.20;;;23.20;51.90;;;;;;4966989;28;20862;-74
2022/09/22 13:20:18;;;;;;;11.40;11.00;;;23.00;49.60;;;;;;4970905;28;20451;-74
2022/09/22 13:22:44;;;;;;;11.27;10.93;;;22.60;50.80;;;;;;4970837;28;20453;-75
2022/09/22 13:25:29;;;;;;;11.70;11.17;;;22.80;51.10;;;;;;4970894;28;20502;-76
2022/09/22 13:28:05;;;;;;;12.20;11.80;;;23.00;51.10;;;;;;4970867;28;20562;-76
2022/09/22 13:30:34;;;;;;;11.63;11.27;;;23.00;49.40;;;;;;4970597;28;20491;-75
2022/09/22 13:33:00;;;;;;;11.77;11.37;;;23.30;48.90;;;;;;4970507;28;20455;-75
2022/09/22 13:35:29;;;;;;;12.53;12.13;;;24.10;49.00;;;;;;4970519;28;20467;-75
2022/09/22 13:37:58;;;;;;;12.60;12.00;;;24.40;48.90;;;;;;4970701;28;20530;-75
2022/09/22 13:40:28;;;;;;;11.77;11.37;;;24.10;49.70;;;;;;4970667;28;20456;-76
2022/09/22 13:42:59;;;;;;;12.30;11.90;;;23.90;49.30;;;;;;4970752;28;20467;-75
2022/09/22 13:45:29;;;;;;;11.80;11.40;;;23.20;49.80;;;;;;4970814;28;20463;-77
2022/09/22 13:48:01;;;;;;;12.10;11.60;;;23.00;50.10;;;;;;4970398;28;20780;-74
2022/09/22 13:50:28;;;;;;;11.83;11.43;;;22.60;50.90;;;;;;4970465;28;20487;-75
2022/09/22 13:52:55;;;;;;;11.10;10.80;;;21.90;51.50;;;;;;4970276;28;20456;-74
2022/09/22 13:55:28;;;;;;;12.00;11.60;;;21.10;51.50;;;;;;4970937;28;20459;-75
2022/09/22 13:57:57;;;;;;;11.47;11.07;;;20.50;52.10;;;;;;4970627;28;20451;-75
2022/09/22 14:00:27;;;;;;;11.30;10.90;;;20.30;52.30;;;;;;4970547;28;20938;-75
2022/09/22 14:02:58;;;;;;;11.07;10.67;;;19.90;53.20;;;;;;4970359;28;20471;-76
2022/09/22 14:05:27;;;;;;;10.97;10.67;;;19.50;55.10;;;;;;4970448;28;20490;-73
2022/09/22 14:07:57;;;;;;;11.00;10.70;;;19.30;55.80;;;;;;4970309;28;20463;-76
2022/09/22 14:10:26;;;;;;;10.70;10.40;;;19.20;56.50;;;;;;4970504;28;20566;-74
2022/09/22 14:12:54;;;;;;;9.73;9.43;;;19.00;56.70;;;;;;4970377;28;20526;-75
2022/09/22 14:15:39;;;;;;;11.17;10.87;;;19.00;57.10;;;;;;4970819;28;20447;-75
2022/09/22 14:18:14;;;;;;;10.53;10.13;;;18.90;57.40;;;;;;4970635;28;20447;-76
2022/09/22 14:20:42;;;;;;;10.97;10.43;;;18.90;57.50;;;;;;4969939;28;20455;-75
2022/09/22 14:23:16;;;;;;;11.00;10.60;;;18.90;56.00;;;;;;4970351;28;20836;-75
2022/09/22 14:25:42;;;;;;;11.10;10.80;;;18.90;57.50;;;;;;4969994;28;21044;-76
2022/09/22 14:28:19;;;;;;;12.03;11.63;;;18.80;57.50;;;;;;4970436;28;20965;-76
2022/09/22 14:30:46;;;;;;;10.47;10.13;;;18.80;57.00;;;;;;4969231;28;21059;-74
2022/09/22 14:33:21;;;;;;;12.50;12.00;;;18.90;57.80;;;;;;4970047;28;20708;-76
2022/09/22 14:35:51;;;;;;;11.60;11.20;;;18.90;58.60;;;;;;4970194;28;20454;-75
2022/09/22 14:38:21;;;;;;;9.53;9.23;;;18.90;57.90;;;;;;4969911;28;20555;-76
2022/09/22 14:40:52;;;;;;;11.00;10.60;;;18.70;57.00;;;;;;4970023;28;20510;-76
2022/09/22 14:43:24;;;;;;;11.60;11.10;;;18.60;56.70;;;;;;4970222;28;20466;-76
2022/09/22 14:45:59;;;;;;;11.40;10.90;;;18.50;56.70;;;;;;4970234;28;20456;-76
2022/09/22 14:48:32;;;;;;;11.40;10.80;;;18.60;58.00;;;;;;4969959;28;20965;-75
2022/09/22 14:51:02;;;;;;;11.77;11.27;;;18.70;56.70;;;;;;4969891;28;20488;-77
2022/09/22 14:53:33;;;;;;;10.47;10.07;;;18.70;56.00;;;;;;4969985;28;20456;-75
2022/09/22 14:56:04;;;;;;;11.97;11.57;;;18.60;57.30;;;;;;4969759;28;20482;-76
2022/09/22 14:58:35;;;;;;;10.23;9.83;;;18.60;57.20;;;;;;4970006;28;20459;-75
2022/09/22 15:03:55;;;;;;;11.93;11.53;;;18.60;57.40;;;;;;4969492;28;20486;-75
2022/09/22 15:06:22;;;;;;;11.60;11.20;;;18.60;58.30;;;;;;4969887;28;20554;-74
2022/09/22 15:08:51;;;;;;;10.93;10.63;;;18.70;59.00;;;;;;4969885;28;20459;-75
2022/09/22 15:11:18;;;;;;;12.00;11.57;;;18.70;58.80;;;;;;4969410;28;20487;-74
2022/09/22 15:13:49;;;;;;;11.83;11.43;;;18.70;57.80;;;;;;4969433;28;21005;-75
2022/09/22 15:16:36;;;;;;;11.30;10.90;;;18.60;57.60;;;;;;4969470;28;20456;-75
2022/09/22 15:19:05;;;;;;;11.57;11.17;;;18.60;57.60;;;;;;4969571;28;20522;-74
2022/09/22 15:21:35;;;;;;;11.20;10.70;;;18.60;58.10;;;;;;4969688;28;20455;-74
2022/09/22 15:24:03;;;;;;;10.97;10.67;;;18.50;57.30;;;;;;4969741;28;20478;-75
2022/09/22 15:26:32;;;;;;;10.50;10.20;;;18.50;57.50;;;;;;4969384;28;20513;-74
2022/09/22 15:29:01;;;;;;;10.53;10.23;;;18.40;58.00;;;;;;4969480;28;20535;-75
2022/09/22 15:31:29;;;;;;;10.90;10.60;;;18.40;57.30;;;;;;4969174;28;20509;-74
2022/09/22 15:34:00;;;;;;;11.33;10.93;;;18.40;57.40;;;;;;4969255;28;20462;-74
2022/09/22 15:36:30;;;;;;;11.27;10.87;;;18.40;57.50;;;;;;4969265;28;20463;-76
2022/09/22 15:38:59;;;;;;;10.17;9.70;;;18.30;59.30;;;;;;4969368;28;20839;-75
2022/09/22 15:41:27;;;;;;;10.13;9.83;;;18.30;58.80;;;;;;4969180;28;20825;-74
2022/09/22 15:43:53;;;;;;;10.73;10.33;;;18.20;59.40;;;;;;4973185;28;20482;-75
2022/09/22 15:46:28;;;;;;;11.57;11.13;;;18.20;59.90;;;;;;4973483;28;20470;-76
2022/09/22 15:48:58;;;;;;;10.60;10.20;;;18.40;61.20;;;;;;4972656;28;20470;-77
2022/09/22 15:51:25;;;;;;;10.60;10.03;;;18.30;62.60;;;;;;4972560;28;20491;-76
2022/09/22 15:53:53;;;;;;;11.23;10.83;;;18.20;60.40;;;;;;4973053;28;20510;-76
2022/09/22 15:56:23;;;;;;;10.83;10.43;;;18.20;60.70;;;;;;4973828;28;20456;-77
2022/09/22 15:58:51;;;;;;;10.80;10.40;;;18.20;61.40;;;;;;4973767;28;20850;-75
2022/09/22 16:01:17;;;;;;;9.07;8.77;;;18.10;61.60;;;;;;4973331;28;20474;-74
2022/09/22 16:03:44;;;;;;;10.07;9.67;;;18.00;61.70;;;;;;4973123;28;20499;-75
2022/09/22 16:06:14;;;;;;;10.50;10.10;;;18.00;61.70;;;;;;4973004;28;20452;-75
2022/09/22 16:08:43;;;;;;;10.53;10.13;;;17.90;62.00;;;;;;4972821;28;20456;-76
2022/09/22 16:11:12;;;;;;;10.30;9.90;;;18.00;63.20;;;;;;4973188;28;20502;-74